sensor_id;sensor_type;location;lat;lon;timestamp;pressure;altitude;pressure_sealevel;temperature;humidity
40612;BME280;26317;44.894;20.286;2023-02-11T00:00:24;103037.75;;;-0.70;65.84
40612;BME280;26317;44.894;20.286;2023-02-11T00:02:54;103038.84;;;-0.72;65.56
40612;BME280;26317;44.894;20.286;2023-02-11T00:05:27;103046.75;;;-0.72;65.85
40612;BME280;26317;44.894;20.286;2023-02-11T00:07:57;103043.41;;;-0.74;66.00
40612;BME280;26317;44.894;20.286;2023-02-11T00:10:27;103048.97;;;-0.77;65.97
40612;BME280;26317;44.894;20.286;2023-02-11T00:12:57;103047.28;;;-0.78;65.98
40612;BME280;26317;44.894;20.286;2023-02-11T00:15:27;103057.38;;;-0.83;66.24
40612;BME280;26317;44.894;20.286;2023-02-11T00:17:57;103062.81;;;-0.85;66.25
40612;BME280;26317;44.894;20.286;2023-02-11T00:20:30;103054.19;;;-0.87;66.06
40612;BME280;26317;44.894;20.286;2023-02-11T00:23:00;103052.41;;;-0.86;66.03
40612;BME280;26317;44.894;20.286;2023-02-11T00:25:30;103050.88;;;-0.89;66.10
40612;BME280;26317;44.894;20.286;2023-02-11T00:28:00;103053.63;;;-0.90;66.11
40612;BME280;26317;44.894;20.286;2023-02-11T00:30:31;103046.56;;;-0.90;66.03
40612;BME280;26317;44.894;20.286;2023-02-11T00:33:01;103056.53;;;-0.94;66.24
40612;BME280;26317;44.894;20.286;2023-02-11T00:35:35;103041.25;;;-1.00;66.45
40612;BME280;26317;44.894;20.286;2023-02-11T00:38:06;103052.09;;;-0.93;66.72
40612;BME280;26317;44.894;20.286;2023-02-11T00:40:37;103039.34;;;-0.98;66.26
40612;BME280;26317;44.894;20.286;2023-02-11T00:43:07;103048.91;;;-0.97;66.58
40612;BME280;26317;44.894;20.286;2023-02-11T00:45:37;103040.03;;;-0.96;66.65
40612;BME280;26317;44.894;20.286;2023-02-11T00:48:07;103047.91;;;-0.96;66.18
40612;BME280;26317;44.894;20.286;2023-02-11T00:50:39;103041.00;;;-0.97;66.26
40612;BME280;26317;44.894;20.286;2023-02-11T00:53:10;103032.97;;;-0.95;66.63
40612;BME280;26317;44.894;20.286;2023-02-11T00:55:40;103028.25;;;-0.92;66.57
40612;BME280;26317;44.894;20.286;2023-02-11T00:58:10;103022.31;;;-0.94;66.49
40612;BME280;26317;44.894;20.286;2023-02-11T01:00:41;103020.50;;;-0.93;66.48
40612;BME280;26317;44.894;20.286;2023-02-11T01:03:12;103029.47;;;-0.96;66.44
40612;BME280;26317;44.894;20.286;2023-02-11T01:05:45;103023.53;;;-0.98;66.25
40612;BME280;26317;44.894;20.286;2023-02-11T01:08:16;102985.47;;;-1.24;66.65
40612;BME280;26317;44.894;20.286;2023-02-11T01:10:53;102967.16;;;-1.35;66.47
40612;BME280;26317;44.894;20.286;2023-02-11T01:13:24;103019.50;;;-1.02;66.43
40612;BME280;26317;44.894;20.286;2023-02-11T01:15:55;103013.91;;;-1.08;66.58
40612;BME280;26317;44.894;20.286;2023-02-11T01:18:26;103010.72;;;-1.12;66.94
40612;BME280;26317;44.894;20.286;2023-02-11T01:20:58;103006.56;;;-1.14;67.32
40612;BME280;26317;44.894;20.286;2023-02-11T01:23:29;103007.66;;;-1.17;67.26
40612;BME280;26317;44.894;20.286;2023-02-11T01:25:59;102999.75;;;-1.17;67.46
40612;BME280;26317;44.894;20.286;2023-02-11T01:28:30;103006.13;;;-1.19;67.79
40612;BME280;26317;44.894;20.286;2023-02-11T01:31:01;103006.69;;;-1.25;67.46
40612;BME280;26317;44.894;20.286;2023-02-11T01:33:32;102980.88;;;-1.31;67.49
40612;BME280;26317;44.894;20.286;2023-02-11T01:36:07;102961.97;;;-1.46;67.36
40612;BME280;26317;44.894;20.286;2023-02-11T01:38:38;102990.88;;;-1.25;67.33
40612;BME280;26317;44.894;20.286;2023-02-11T01:41:12;102991.56;;;-1.23;67.50
40612;BME280;26317;44.894;20.286;2023-02-11T01:43:45;102984.78;;;-1.26;67.15
40612;BME280;26317;44.894;20.286;2023-02-11T01:46:32;102982.41;;;-1.29;67.55
40612;BME280;26317;44.894;20.286;2023-02-11T01:49:05;102979.75;;;-1.29;67.70
40612;BME280;26317;44.894;20.286;2023-02-11T01:51:41;102980.03;;;-1.32;67.54
40612;BME280;26317;44.894;20.286;2023-02-11T01:54:18;102969.38;;;-1.30;67.45
40612;BME280;26317;44.894;20.286;2023-02-11T01:57:02;102973.94;;;-1.32;67.61
40612;BME280;26317;44.894;20.286;2023-02-11T01:59:51;102970.34;;;-1.31;68.43
40612;BME280;26317;44.894;20.286;2023-02-11T02:02:27;102966.88;;;-1.32;68.40
40612;BME280;26317;44.894;20.286;2023-02-11T02:05:03;102968.44;;;-1.29;68.30
40612;BME280;26317;44.894;20.286;2023-02-11T02:07:43;102967.59;;;-1.30;68.21
40612;BME280;26317;44.894;20.286;2023-02-11T02:10:20;102962.56;;;-1.33;68.04
40612;BME280;26317;44.894;20.286;2023-02-11T02:12:51;102958.53;;;-1.37;68.03
40612;BME280;26317;44.894;20.286;2023-02-11T02:15:29;102960.88;;;-1.44;68.20
40612;BME280;26317;44.894;20.286;2023-02-11T02:18:16;102937.69;;;-1.59;68.24
40612;BME280;26317;44.894;20.286;2023-02-11T02:24:25;102976.34;;;-1.50;68.67
40612;BME280;26317;44.894;20.286;2023-02-11T02:27:18;102973.72;;;-1.50;68.75
40612;BME280;26317;44.894;20.286;2023-02-11T02:30:24;102963.19;;;-1.50;68.21
40612;BME280;26317;44.894;20.286;2023-02-11T02:33:07;102966.81;;;-1.51;68.44
40612;BME280;26317;44.894;20.286;2023-02-11T02:35:59;102957.38;;;-1.54;68.68
40612;BME280;26317;44.894;20.286;2023-02-11T02:38:36;102957.38;;;-1.54;68.86
40612;BME280;26317;44.894;20.286;2023-02-11T02:41:09;102954.72;;;-1.54;68.22
40612;BME280;26317;44.894;20.286;2023-02-11T02:43:41;102949.63;;;-1.55;68.88
40612;BME280;26317;44.894;20.286;2023-02-11T02:46:15;102902.44;;;-1.77;68.93
40612;BME280;26317;44.894;20.286;2023-02-11T02:48:49;102943.13;;;-1.51;68.99
40612;BME280;26317;44.894;20.286;2023-02-11T02:51:34;102945.88;;;-1.53;68.97
40612;BME280;26317;44.894;20.286;2023-02-11T02:54:24;102942.28;;;-1.52;68.87
40612;BME280;26317;44.894;20.286;2023-02-11T02:57:06;102936.47;;;-1.55;68.78
40612;BME280;26317;44.894;20.286;2023-02-11T02:59:44;102939.50;;;-1.60;69.06
40612;BME280;26317;44.894;20.286;2023-02-11T03:02:25;102929.91;;;-1.61;69.06
40612;BME280;26317;44.894;20.286;2023-02-11T03:05:03;102927.28;;;-1.61;69.19
40612;BME280;26317;44.894;20.286;2023-02-11T03:07:39;102925.19;;;-1.67;69.25
40612;BME280;26317;44.894;20.286;2023-02-11T03:10:14;102929.47;;;-1.66;68.96
40612;BME280;26317;44.894;20.286;2023-02-11T03:12:47;102916.31;;;-1.75;69.05
40612;BME280;26317;44.894;20.286;2023-02-11T03:15:19;102917.81;;;-1.73;69.42
40612;BME280;26317;44.894;20.286;2023-02-11T03:17:52;102914.81;;;-1.68;69.21
40612;BME280;26317;44.894;20.286;2023-02-11T03:20:26;102906.75;;;-1.76;69.22
40612;BME280;26317;44.894;20.286;2023-02-11T03:23:03;102907.25;;;-1.82;69.34
40612;BME280;26317;44.894;20.286;2023-02-11T03:25:40;102902.00;;;-1.82;69.34
40612;BME280;26317;44.894;20.286;2023-02-11T03:28:15;102894.50;;;-1.87;69.34
40612;BME280;26317;44.894;20.286;2023-02-11T03:30:52;102906.00;;;-1.88;69.52
40612;BME280;26317;44.894;20.286;2023-02-11T03:33:26;102904.72;;;-1.94;69.58
40612;BME280;26317;44.894;20.286;2023-02-11T03:36:05;102894.97;;;-2.03;69.47
40612;BME280;26317;44.894;20.286;2023-02-11T03:38:43;102915.13;;;-1.92;69.82
40612;BME280;26317;44.894;20.286;2023-02-11T03:41:16;102909.72;;;-1.91;69.69
40612;BME280;26317;44.894;20.286;2023-02-11T03:43:54;102912.78;;;-1.86;69.67
40612;BME280;26317;44.894;20.286;2023-02-11T03:46:29;102908.94;;;-1.81;69.29
40612;BME280;26317;44.894;20.286;2023-02-11T03:49:03;102900.06;;;-1.80;69.22
40612;BME280;26317;44.894;20.286;2023-02-11T03:51:37;102893.97;;;-1.81;69.22
40612;BME280;26317;44.894;20.286;2023-02-11T03:54:10;102857.91;;;-2.00;69.01
40612;BME280;26317;44.894;20.286;2023-02-11T03:56:48;102883.59;;;-1.82;68.69
40612;BME280;26317;44.894;20.286;2023-02-11T03:59:18;102826.97;;;-2.17;68.90
40612;BME280;26317;44.894;20.286;2023-02-11T04:01:49;102892.03;;;-1.79;68.98
40612;BME280;26317;44.894;20.286;2023-02-11T04:04:19;102887.88;;;-1.81;68.73
40612;BME280;26317;44.894;20.286;2023-02-11T04:06:52;102884.69;;;-1.85;68.72
40612;BME280;26317;44.894;20.286;2023-02-11T04:09:22;102884.97;;;-1.88;69.22
40612;BME280;26317;44.894;20.286;2023-02-11T04:11:52;102883.41;;;-1.91;69.45
40612;BME280;26317;44.894;20.286;2023-02-11T04:14:22;102849.38;;;-2.13;69.59
40612;BME280;26317;44.894;20.286;2023-02-11T04:16:52;102873.44;;;-1.97;69.65
40612;BME280;26317;44.894;20.286;2023-02-11T04:19:22;102849.81;;;-2.17;69.66
40612;BME280;26317;44.894;20.286;2023-02-11T04:21:55;102875.63;;;-2.02;69.67
40612;BME280;26317;44.894;20.286;2023-02-11T04:24:25;102875.63;;;-2.02;69.78
40612;BME280;26317;44.894;20.286;2023-02-11T04:26:55;102848.25;;;-2.20;69.86
40612;BME280;26317;44.894;20.286;2023-02-11T04:29:25;102878.69;;;-1.97;69.01
40612;BME280;26317;44.894;20.286;2023-02-11T04:31:56;102871.50;;;-1.95;69.72
40612;BME280;26317;44.894;20.286;2023-02-11T04:34:26;102827.38;;;-2.21;69.40
40612;BME280;26317;44.894;20.286;2023-02-11T04:36:59;102862.19;;;-1.99;69.12
40612;BME280;26317;44.894;20.286;2023-02-11T04:39:29;102877.03;;;-1.98;68.88
40612;BME280;26317;44.894;20.286;2023-02-11T04:41:59;102864.66;;;-2.07;69.61
40612;BME280;26317;44.894;20.286;2023-02-11T04:44:29;102879.19;;;-2.03;69.54
40612;BME280;26317;44.894;20.286;2023-02-11T04:47:00;102872.28;;;-2.04;69.53
40612;BME280;26317;44.894;20.286;2023-02-11T04:49:30;102866.59;;;-2.09;69.31
40612;BME280;26317;44.894;20.286;2023-02-11T04:52:02;102878.75;;;-2.08;69.49
40612;BME280;26317;44.894;20.286;2023-02-11T04:54:33;102876.13;;;-2.08;69.85
40612;BME280;26317;44.894;20.286;2023-02-11T04:57:03;102842.69;;;-2.26;69.78
40612;BME280;26317;44.894;20.286;2023-02-11T04:59:33;102882.50;;;-2.10;69.44
40612;BME280;26317;44.894;20.286;2023-02-11T05:02:03;102880.81;;;-2.11;69.73
40612;BME280;26317;44.894;20.286;2023-02-11T05:04:33;102883.56;;;-2.13;69.50
40612;BME280;26317;44.894;20.286;2023-02-11T05:07:06;102883.56;;;-2.13;69.75
40612;BME280;26317;44.894;20.286;2023-02-11T05:09:36;102885.22;;;-2.12;69.80
40612;BME280;26317;44.894;20.286;2023-02-11T05:12:06;102885.00;;;-2.09;69.77
40612;BME280;26317;44.894;20.286;2023-02-11T05:14:37;102888.31;;;-2.07;69.50
40612;BME280;26317;44.894;20.286;2023-02-11T05:17:07;102894.53;;;-2.08;69.04
40612;BME280;26317;44.894;20.286;2023-02-11T05:19:37;102894.91;;;-2.12;69.01
40612;BME280;26317;44.894;20.286;2023-02-11T05:22:10;102898.66;;;-2.15;68.94
40612;BME280;26317;44.894;20.286;2023-02-11T05:24:40;102896.97;;;-2.16;69.18
40612;BME280;26317;44.894;20.286;2023-02-11T05:27:10;102892.09;;;-2.20;68.95
40612;BME280;26317;44.894;20.286;2023-02-11T05:29:41;102882.25;;;-2.28;69.23
40612;BME280;26317;44.894;20.286;2023-02-11T05:32:11;102854.63;;;-2.43;69.51
40612;BME280;26317;44.894;20.286;2023-02-11T05:34:41;102889.63;;;-2.22;69.49
40612;BME280;26317;44.894;20.286;2023-02-11T05:37:13;102881.84;;;-2.23;69.27
40612;BME280;26317;44.894;20.286;2023-02-11T05:39:44;102892.09;;;-2.20;69.66
40612;BME280;26317;44.894;20.286;2023-02-11T05:42:14;102840.47;;;-2.52;69.28
40612;BME280;26317;44.894;20.286;2023-02-11T05:44:44;102898.19;;;-2.20;69.08
40612;BME280;26317;44.894;20.286;2023-02-11T05:47:16;102891.25;;;-2.21;69.31
40612;BME280;26317;44.894;20.286;2023-02-11T05:49:46;102890.31;;;-2.20;69.33
40612;BME280;26317;44.894;20.286;2023-02-11T05:52:19;102884.78;;;-2.17;68.70
40612;BME280;26317;44.894;20.286;2023-02-11T05:54:50;102884.09;;;-2.19;68.94
40612;BME280;26317;44.894;20.286;2023-02-11T05:57:20;102886.84;;;-2.20;69.33
40612;BME280;26317;44.894;20.286;2023-02-11T05:59:50;102888.41;;;-2.18;69.32
40612;BME280;26317;44.894;20.286;2023-02-11T06:02:20;102895.28;;;-2.17;69.06
40612;BME280;26317;44.894;20.286;2023-02-11T06:04:50;102861.03;;;-2.36;68.94
40612;BME280;26317;44.894;20.286;2023-02-11T06:07:23;102891.03;;;-2.18;69.41
40612;BME280;26317;44.894;20.286;2023-02-11T06:09:53;102892.66;;;-2.17;69.42
40612;BME280;26317;44.894;20.286;2023-02-11T06:12:23;102888.00;;;-2.13;69.50
40612;BME280;26317;44.894;20.286;2023-02-11T06:14:53;102890.88;;;-2.16;69.58
40612;BME280;26317;44.894;20.286;2023-02-11T06:17:23;102890.75;;;-2.15;69.47
40612;BME280;26317;44.894;20.286;2023-02-11T06:19:59;102898.38;;;-2.12;69.83
40612;BME280;26317;44.894;20.286;2023-02-11T06:22:39;102904.19;;;-2.08;69.68
40612;BME280;26317;44.894;20.286;2023-02-11T06:25:14;102902.56;;;-2.09;69.75
40612;BME280;26317;44.894;20.286;2023-02-11T06:27:45;102902.94;;;-2.14;69.76
40612;BME280;26317;44.894;20.286;2023-02-11T06:30:21;102910.84;;;-2.14;70.06
40612;BME280;26317;44.894;20.286;2023-02-11T06:32:51;102908.22;;;-2.14;70.10
40612;BME280;26317;44.894;20.286;2023-02-11T06:35:31;102908.91;;;-2.12;69.95
40612;BME280;26317;44.894;20.286;2023-02-11T06:38:05;102909.84;;;-2.13;70.67
40612;BME280;26317;44.894;20.286;2023-02-11T06:40:38;102909.34;;;-2.07;70.52
40612;BME280;26317;44.894;20.286;2023-02-11T06:43:08;102905.59;;;-2.04;70.67
40612;BME280;26317;44.894;20.286;2023-02-11T06:45:44;102898.84;;;-2.07;70.60
40612;BME280;26317;44.894;20.286;2023-02-11T06:48:16;102855.50;;;-2.33;70.43
40612;BME280;26317;44.894;20.286;2023-02-11T06:50:48;102886.91;;;-2.11;71.20
40612;BME280;26317;44.894;20.286;2023-02-11T06:53:36;102866.34;;;-2.26;71.88
40612;BME280;26317;44.894;20.286;2023-02-11T06:56:13;102870.25;;;-2.21;71.74
40612;BME280;26317;44.894;20.286;2023-02-11T06:58:44;102901.91;;;-2.02;72.27
40612;BME280;26317;44.894;20.286;2023-02-11T07:01:26;102873.03;;;-2.13;72.40
40612;BME280;26317;44.894;20.286;2023-02-11T07:03:57;102889.59;;;-2.01;72.67
40612;BME280;26317;44.894;20.286;2023-02-11T07:06:28;102885.34;;;-1.93;73.39
40612;BME280;26317;44.894;20.286;2023-02-11T07:09:13;102878.31;;;-1.82;73.55
40612;BME280;26317;44.894;20.286;2023-02-11T07:11:47;102878.47;;;-1.84;74.44
40612;BME280;26317;44.894;20.286;2023-02-11T07:14:17;102877.66;;;-1.75;74.55
40612;BME280;26317;44.894;20.286;2023-02-11T07:16:52;102883.69;;;-1.63;74.96
40612;BME280;26317;44.894;20.286;2023-02-11T07:19:22;102875.78;;;-1.54;75.76
40612;BME280;26317;44.894;20.286;2023-02-11T07:21:52;102870.69;;;-1.46;75.66
40612;BME280;26317;44.894;20.286;2023-02-11T07:24:27;102869.44;;;-1.42;75.95
40612;BME280;26317;44.894;20.286;2023-02-11T07:27:01;102873.06;;;-1.33;76.10
40612;BME280;26317;44.894;20.286;2023-02-11T07:29:36;102861.16;;;-1.37;76.54
40612;BME280;26317;44.894;20.286;2023-02-11T07:32:08;102862.97;;;-1.28;76.84
40612;BME280;26317;44.894;20.286;2023-02-11T07:34:41;102825.44;;;-1.40;77.17
40612;BME280;26317;44.894;20.286;2023-02-11T07:37:12;102866.22;;;-1.05;77.34
40612;BME280;26317;44.894;20.286;2023-02-11T07:39:47;102874.09;;;-0.96;77.28
40612;BME280;26317;44.894;20.286;2023-02-11T07:42:22;102866.91;;;-0.84;77.12
40612;BME280;26317;44.894;20.286;2023-02-11T07:44:55;102852.75;;;-0.83;76.48
40612;BME280;26317;44.894;20.286;2023-02-11T07:47:25;102870.66;;;-0.67;75.82
40612;BME280;26317;44.894;20.286;2023-02-11T07:49:56;102856.22;;;-0.63;75.90
40612;BME280;26317;44.894;20.286;2023-02-11T07:52:28;102862.31;;;-0.53;75.74
40612;BME280;26317;44.894;20.286;2023-02-11T07:55:03;102859.53;;;-0.42;75.78
40612;BME280;26317;44.894;20.286;2023-02-11T07:57:38;102862.13;;;-0.32;75.75
40612;BME280;26317;44.894;20.286;2023-02-11T08:00:11;102863.09;;;-0.24;74.68
40612;BME280;26317;44.894;20.286;2023-02-11T08:02:50;102864.47;;;-0.20;73.13
40612;BME280;26317;44.894;20.286;2023-02-11T08:05:20;102855.88;;;-0.22;73.20
40612;BME280;26317;44.894;20.286;2023-02-11T08:07:51;102858.47;;;-0.12;73.07
40612;BME280;26317;44.894;20.286;2023-02-11T08:10:24;102853.88;;;-0.10;73.84
40612;BME280;26317;44.894;20.286;2023-02-11T08:12:54;102821.59;;;-0.22;74.05
40612;BME280;26317;44.894;20.286;2023-02-11T08:15:25;102829.72;;;-0.06;74.02
40612;BME280;26317;44.894;20.286;2023-02-11T08:17:55;102841.88;;;0.05;72.69
40612;BME280;26317;44.894;20.286;2023-02-11T08:20:25;102840.50;;;0.11;73.06
40612;BME280;26317;44.894;20.286;2023-02-11T08:22:55;102827.88;;;0.05;73.48
40612;BME280;26317;44.894;20.286;2023-02-11T08:25:28;102842.09;;;0.21;73.09
40612;BME280;26317;44.894;20.286;2023-02-11T08:27:58;102832.38;;;0.22;73.49
40612;BME280;26317;44.894;20.286;2023-02-11T08:30:28;102839.81;;;0.36;73.64
40612;BME280;26317;44.894;20.286;2023-02-11T08:32:58;102835.75;;;0.41;73.68
40612;BME280;26317;44.894;20.286;2023-02-11T08:35:29;102828.75;;;0.50;73.49
40612;BME280;26317;44.894;20.286;2023-02-11T08:37:59;102834.81;;;0.60;73.16
40612;BME280;26317;44.894;20.286;2023-02-11T08:40:36;102834.88;;;0.68;70.78
40612;BME280;26317;44.894;20.286;2023-02-11T08:43:07;102832.50;;;0.75;70.72
40612;BME280;26317;44.894;20.286;2023-02-11T08:45:41;102834.22;;;0.84;70.63
40612;BME280;26317;44.894;20.286;2023-02-11T08:48:15;102837.69;;;0.84;69.74
40612;BME280;26317;44.894;20.286;2023-02-11T08:50:47;102835.28;;;0.91;70.83
40612;BME280;26317;44.894;20.286;2023-02-11T08:53:17;102838.16;;;0.98;70.55
40612;BME280;26317;44.894;20.286;2023-02-11T08:55:51;102840.03;;;1.05;69.82
40612;BME280;26317;44.894;20.286;2023-02-11T08:58:22;102836.78;;;1.11;69.40
40612;BME280;26317;44.894;20.286;2023-02-11T09:00:52;102835.88;;;1.20;68.91
40612;BME280;26317;44.894;20.286;2023-02-11T09:03:22;102843.66;;;1.22;69.68
40612;BME280;26317;44.894;20.286;2023-02-11T09:05:53;102842.97;;;1.20;69.75
40612;BME280;26317;44.894;20.286;2023-02-11T09:08:23;102848.66;;;1.25;70.16
40612;BME280;26317;44.894;20.286;2023-02-11T09:10:57;102815.13;;;1.08;69.80
40612;BME280;26317;44.894;20.286;2023-02-11T09:13:27;102848.78;;;1.41;68.56
40612;BME280;26317;44.894;20.286;2023-02-11T09:16:00;102840.84;;;1.41;67.96
40612;BME280;26317;44.894;20.286;2023-02-11T09:18:31;102842.19;;;1.45;68.40
40612;BME280;26317;44.894;20.286;2023-02-11T09:21:03;102842.84;;;1.47;68.39
40612;BME280;26317;44.894;20.286;2023-02-11T09:23:37;102854.00;;;1.59;66.98
40612;BME280;26317;44.894;20.286;2023-02-11T09:26:14;102840.78;;;1.59;67.99
40612;BME280;26317;44.894;20.286;2023-02-11T09:28:45;102849.91;;;1.64;66.98
40612;BME280;26317;44.894;20.286;2023-02-11T09:31:18;102834.06;;;1.64;66.40
40612;BME280;26317;44.894;20.286;2023-02-11T09:33:51;102850.28;;;1.69;66.40
40612;BME280;26317;44.894;20.286;2023-02-11T09:36:23;102836.09;;;1.70;66.85
40612;BME280;26317;44.894;20.286;2023-02-11T09:38:56;102843.75;;;1.81;66.05
40612;BME280;26317;44.894;20.286;2023-02-11T09:41:40;102845.41;;;1.82;66.41
40612;BME280;26317;44.894;20.286;2023-02-11T09:44:17;102835.03;;;1.89;66.16
40612;BME280;26317;44.894;20.286;2023-02-11T09:46:54;102807.22;;;1.85;66.06
40612;BME280;26317;44.894;20.286;2023-02-11T09:49:32;102826.03;;;2.08;65.56
40612;BME280;26317;44.894;20.286;2023-02-11T09:52:07;102823.25;;;2.17;64.30
40612;BME280;26317;44.894;20.286;2023-02-11T09:54:47;102822.47;;;2.25;65.14
40612;BME280;26317;44.894;20.286;2023-02-11T09:57:21;102806.13;;;2.29;65.13
40612;BME280;26317;44.894;20.286;2023-02-11T09:59:55;102775.47;;;2.27;64.19
40612;BME280;26317;44.894;20.286;2023-02-11T10:02:30;102805.16;;;2.55;63.95
40612;BME280;26317;44.894;20.286;2023-02-11T10:05:20;102813.47;;;2.60;63.67
40612;BME280;26317;44.894;20.286;2023-02-11T10:08:02;102799.72;;;2.64;63.74
40612;BME280;26317;44.894;20.286;2023-02-11T10:10:43;102785.50;;;2.73;62.25
40612;BME280;26317;44.894;20.286;2023-02-11T10:13:46;102784.19;;;2.77;63.42
40612;BME280;26317;44.894;20.286;2023-02-11T10:16:26;102773.59;;;2.86;64.16
40612;BME280;26317;44.894;20.286;2023-02-11T10:19:12;102774.59;;;2.93;63.64
40612;BME280;26317;44.894;20.286;2023-02-11T10:21:56;102753.56;;;2.99;63.18
40612;BME280;26317;44.894;20.286;2023-02-11T10:24:28;102770.63;;;3.13;63.00
40612;BME280;26317;44.894;20.286;2023-02-11T10:27:01;102758.69;;;3.09;62.27
40612;BME280;26317;44.894;20.286;2023-02-11T10:29:44;102754.38;;;3.16;62.15
40612;BME280;26317;44.894;20.286;2023-02-11T10:32:25;102743.09;;;3.14;61.43
40612;BME280;26317;44.894;20.286;2023-02-11T10:35:01;102745.44;;;3.17;60.37
40612;BME280;26317;44.894;20.286;2023-02-11T10:37:31;102743.41;;;3.27;60.98
40612;BME280;26317;44.894;20.286;2023-02-11T10:40:02;102743.25;;;3.29;60.28
40612;BME280;26317;44.894;20.286;2023-02-11T10:42:33;102733.63;;;3.36;59.79
40612;BME280;26317;44.894;20.286;2023-02-11T10:45:16;102734.28;;;3.46;59.86
40612;BME280;26317;44.894;20.286;2023-02-11T10:47:48;102722.97;;;3.52;58.23
40612;BME280;26317;44.894;20.286;2023-02-11T10:50:22;102722.31;;;3.58;59.80
40612;BME280;26317;44.894;20.286;2023-02-11T10:53:09;102717.78;;;3.66;59.78
40612;BME280;26317;44.894;20.286;2023-02-11T10:55:48;102702.34;;;3.70;59.54
40612;BME280;26317;44.894;20.286;2023-02-11T10:58:24;102696.53;;;3.75;58.25
40612;BME280;26317;44.894;20.286;2023-02-11T11:00:59;102704.78;;;3.88;58.18
40612;BME280;26317;44.894;20.286;2023-02-11T11:03:46;102704.09;;;3.86;53.83
40612;BME280;26317;44.894;20.286;2023-02-11T11:06:28;102690.88;;;3.78;54.98
40612;BME280;26317;44.894;20.286;2023-02-11T11:08:59;102709.56;;;3.92;55.14
40612;BME280;26317;44.894;20.286;2023-02-11T11:11:30;102688.66;;;3.89;55.57
40612;BME280;26317;44.894;20.286;2023-02-11T11:14:01;102699.19;;;4.05;56.20
40612;BME280;26317;44.894;20.286;2023-02-11T11:16:34;102690.06;;;4.08;55.12
40612;BME280;26317;44.894;20.286;2023-02-11T11:19:23;102685.63;;;4.23;55.37
40612;BME280;26317;44.894;20.286;2023-02-11T11:21:56;102686.31;;;4.25;55.21
40612;BME280;26317;44.894;20.286;2023-02-11T11:24:28;102672.66;;;4.28;55.25
40612;BME280;26317;44.894;20.286;2023-02-11T11:27:03;102676.66;;;4.24;51.29
40612;BME280;26317;44.894;20.286;2023-02-11T11:29:35;102664.75;;;4.20;52.41
40612;BME280;26317;44.894;20.286;2023-02-11T11:32:17;102665.53;;;4.29;52.93
40612;BME280;26317;44.894;20.286;2023-02-11T11:34:50;102667.00;;;4.31;53.13
40612;BME280;26317;44.894;20.286;2023-02-11T11:37:23;102662.63;;;4.38;52.86
40612;BME280;26317;44.894;20.286;2023-02-11T11:39:56;102653.91;;;4.30;52.51
40612;BME280;26317;44.894;20.286;2023-02-11T11:42:29;102652.47;;;4.42;52.17
40612;BME280;26317;44.894;20.286;2023-02-11T11:45:02;102650.66;;;4.42;52.63
40612;BME280;26317;44.894;20.286;2023-02-11T11:47:39;102635.63;;;4.49;50.81
40612;BME280;26317;44.894;20.286;2023-02-11T11:50:24;102641.19;;;4.62;51.44
40612;BME280;26317;44.894;20.286;2023-02-11T11:53:02;102624.03;;;4.65;51.41
40612;BME280;26317;44.894;20.286;2023-02-11T11:55:37;102606.63;;;4.62;53.01
40612;BME280;26317;44.894;20.286;2023-02-11T11:58:13;102638.47;;;4.85;50.32
40612;BME280;26317;44.894;20.286;2023-02-11T12:00:52;102628.94;;;4.91;49.36
40612;BME280;26317;44.894;20.286;2023-02-11T12:03:48;102631.44;;;4.92;49.81
40612;BME280;26317;44.894;20.286;2023-02-11T12:06:30;102627.19;;;4.98;50.60
40612;BME280;26317;44.894;20.286;2023-02-11T12:09:11;102612.53;;;5.02;49.88
40612;BME280;26317;44.894;20.286;2023-02-11T12:11:57;102613.34;;;5.02;50.49
40612;BME280;26317;44.894;20.286;2023-02-11T12:14:38;102606.66;;;5.06;49.02
40612;BME280;26317;44.894;20.286;2023-02-11T12:17:19;102601.63;;;5.12;49.27
40612;BME280;26317;44.894;20.286;2023-02-11T12:20:14;102587.31;;;5.13;49.00
40612;BME280;26317;44.894;20.286;2023-02-11T12:22:55;102588.41;;;5.18;48.46
40612;BME280;26317;44.894;20.286;2023-02-11T12:25:32;102570.97;;;5.01;48.76
40612;BME280;26317;44.894;20.286;2023-02-11T12:28:18;102585.75;;;5.18;48.65
40612;BME280;26317;44.894;20.286;2023-02-11T12:31:18;102576.38;;;5.22;48.39
40612;BME280;26317;44.894;20.286;2023-02-11T12:34:07;102578.47;;;5.27;47.79
40612;BME280;26317;44.894;20.286;2023-02-11T12:36:59;102571.16;;;5.29;47.37
40612;BME280;26317;44.894;20.286;2023-02-11T12:39:40;102576.47;;;5.29;48.25
40612;BME280;26317;44.894;20.286;2023-02-11T12:42:22;102571.72;;;5.24;48.23
40612;BME280;26317;44.894;20.286;2023-02-11T12:45:19;102570.88;;;5.38;47.91
40612;BME280;26317;44.894;20.286;2023-02-11T12:48:04;102563.97;;;5.44;47.70
40612;BME280;26317;44.894;20.286;2023-02-11T12:50:45;102560.38;;;5.51;46.91
40612;BME280;26317;44.894;20.286;2023-02-11T12:53:46;102556.69;;;5.52;47.03
40612;BME280;26317;44.894;20.286;2023-02-11T12:56:27;102562.13;;;5.59;46.53
40612;BME280;26317;44.894;20.286;2023-02-11T12:59:01;102530.03;;;5.46;46.98
40612;BME280;26317;44.894;20.286;2023-02-11T13:01:36;102538.72;;;5.54;46.57
40612;BME280;26317;44.894;20.286;2023-02-11T13:04:15;102556.28;;;5.70;46.78
40612;BME280;26317;44.894;20.286;2023-02-11T13:06:50;102547.53;;;5.76;47.24
40612;BME280;26317;44.894;20.286;2023-02-11T13:09:26;102507.13;;;5.51;46.13
40612;BME280;26317;44.894;20.286;2023-02-11T13:12:02;102543.59;;;5.87;46.59
40612;BME280;26317;44.894;20.286;2023-02-11T13:14:58;102532.94;;;5.87;46.44
40612;BME280;26317;44.894;20.286;2023-02-11T13:17:36;102513.16;;;5.81;46.76
40612;BME280;26317;44.894;20.286;2023-02-11T13:20:18;102544.34;;;6.02;47.50
40612;BME280;26317;44.894;20.286;2023-02-11T13:22:55;102540.66;;;6.03;46.83
40612;BME280;26317;44.894;20.286;2023-02-11T13:25:35;102526.66;;;5.94;47.10